sensor_id;sensor_type;location;lat;lon;timestamp;P1;durP1;ratioP1;P2;durP2;ratioP2
35126;SDS011;21300;52.006;5.798;2022-12-18T00:01:26;55.30;;;24.48;;
35126;SDS011;21300;52.006;5.798;2022-12-18T00:03:55;59.67;;;25.23;;
35126;SDS011;21300;52.006;5.798;2022-12-18T00:06:21;61.53;;;27.67;;
35126;SDS011;21300;52.006;5.798;2022-12-18T00:08:47;60.15;;;27.50;;
35126;SDS011;21300;52.006;5.798;2022-12-18T00:11:14;61.03;;;25.80;;
35126;SDS011;21300;52.006;5.798;2022-12-18T00:13:41;62.10;;;25.20;;
35126;SDS011;21300;52.006;5.798;2022-12-18T00:16:10;65.82;;;27.55;;
35126;SDS011;21300;52.006;5.798;2022-12-18T00:18:37;60.33;;;26.50;;
35126;SDS011;21300;52.006;5.798;2022-12-18T00:21:04;57.75;;;26.02;;
35126;SDS011;21300;52.006;5.798;2022-12-18T00:23:31;56.75;;;23.33;;
35126;SDS011;21300;52.006;5.798;2022-12-18T00:25:58;60.28;;;25.90;;
35126;SDS011;21300;52.006;5.798;2022-12-18T00:28:25;65.97;;;26.75;;
35126;SDS011;21300;52.006;5.798;2022-12-18T00:30:50;60.65;;;24.00;;
35126;SDS011;21300;52.006;5.798;2022-12-18T00:33:23;57.97;;;25.33;;
35126;SDS011;21300;52.006;5.798;2022-12-18T00:35:49;61.20;;;27.02;;
35126;SDS011;21300;52.006;5.798;2022-12-18T00:38:14;59.10;;;24.48;;
35126;SDS011;21300;52.006;5.798;2022-12-18T00:40:40;64.13;;;25.75;;
35126;SDS011;21300;52.006;5.798;2022-12-18T00:43:05;59.33;;;26.67;;
35126;SDS011;21300;52.006;5.798;2022-12-18T00:45:34;58.85;;;25.67;;
35126;SDS011;21300;52.006;5.798;2022-12-18T00:47:59;60.75;;;25.15;;
35126;SDS011;21300;52.006;5.798;2022-12-18T00:50:25;58.67;;;24.90;;
35126;SDS011;21300;52.006;5.798;2022-12-18T00:52:51;54.78;;;23.40;;
35126;SDS011;21300;52.006;5.798;2022-12-18T00:55:17;59.33;;;25.40;;
35126;SDS011;21300;52.006;5.798;2022-12-18T00:57:43;59.42;;;25.50;;
35126;SDS011;21300;52.006;5.798;2022-12-18T01:00:10;61.22;;;25.50;;
35126;SDS011;21300;52.006;5.798;2022-12-18T01:02:38;57.80;;;24.67;;
35126;SDS011;21300;52.006;5.798;2022-12-18T01:05:04;56.28;;;26.30;;
35126;SDS011;21300;52.006;5.798;2022-12-18T01:07:30;59.95;;;25.63;;
35126;SDS011;21300;52.006;5.798;2022-12-18T01:09:55;58.10;;;26.10;;
35126;SDS011;21300;52.006;5.798;2022-12-18T01:12:21;57.00;;;27.15;;
35126;SDS011;21300;52.006;5.798;2022-12-18T01:14:46;51.40;;;24.77;;
35126;SDS011;21300;52.006;5.798;2022-12-18T01:17:12;50.85;;;24.63;;
35126;SDS011;21300;52.006;5.798;2022-12-18T01:19:37;56.38;;;24.00;;
35126;SDS011;21300;52.006;5.798;2022-12-18T01:22:03;54.35;;;23.65;;
35126;SDS011;21300;52.006;5.798;2022-12-18T01:24:29;51.55;;;23.55;;
35126;SDS011;21300;52.006;5.798;2022-12-18T01:26:54;55.22;;;24.35;;
35126;SDS011;21300;52.006;5.798;2022-12-18T01:29:22;51.10;;;22.90;;
35126;SDS011;21300;52.006;5.798;2022-12-18T01:31:47;50.00;;;23.70;;
35126;SDS011;21300;52.006;5.798;2022-12-18T01:34:13;58.38;;;25.27;;
35126;SDS011;21300;52.006;5.798;2022-12-18T01:36:39;44.95;;;22.27;;
35126;SDS011;21300;52.006;5.798;2022-12-18T01:39:06;47.10;;;22.27;;
35126;SDS011;21300;52.006;5.798;2022-12-18T01:41:35;50.20;;;22.20;;
35126;SDS011;21300;52.006;5.798;2022-12-18T01:50:00;46.35;;;22.05;;
35126;SDS011;21300;52.006;5.798;2022-12-18T01:52:32;47.22;;;21.52;;
35126;SDS011;21300;52.006;5.798;2022-12-18T01:54:59;46.47;;;21.83;;
35126;SDS011;21300;52.006;5.798;2022-12-18T01:57:27;46.80;;;21.42;;
35126;SDS011;21300;52.006;5.798;2022-12-18T01:59:53;45.30;;;21.80;;
35126;SDS011;21300;52.006;5.798;2022-12-18T02:02:23;49.92;;;21.80;;
35126;SDS011;21300;52.006;5.798;2022-12-18T02:04:52;47.78;;;23.02;;
35126;SDS011;21300;52.006;5.798;2022-12-18T02:10:28;45.75;;;21.95;;
35126;SDS011;21300;52.006;5.798;2022-12-18T02:13:12;46.53;;;21.67;;
35126;SDS011;21300;52.006;5.798;2022-12-18T02:18:15;48.00;;;22.15;;
35126;SDS011;21300;52.006;5.798;2022-12-18T02:21:00;48.33;;;21.85;;
35126;SDS011;21300;52.006;5.798;2022-12-18T02:23:35;43.88;;;21.75;;
35126;SDS011;21300;52.006;5.798;2022-12-18T02:26:20;48.13;;;22.08;;
35126;SDS011;21300;52.006;5.798;2022-12-18T02:29:10;42.72;;;19.85;;
35126;SDS011;21300;52.006;5.798;2022-12-18T02:31:39;43.45;;;21.25;;
35126;SDS011;21300;52.006;5.798;2022-12-18T02:34:16;45.50;;;21.15;;
35126;SDS011;21300;52.006;5.798;2022-12-18T02:36:43;40.83;;;21.45;;
35126;SDS011;21300;52.006;5.798;2022-12-18T02:39:11;41.15;;;20.83;;
35126;SDS011;21300;52.006;5.798;2022-12-18T02:41:38;39.63;;;19.00;;
35126;SDS011;21300;52.006;5.798;2022-12-18T02:44:09;40.83;;;20.10;;
35126;SDS011;21300;52.006;5.798;2022-12-18T02:46:37;40.78;;;19.48;;
35126;SDS011;21300;52.006;5.798;2022-12-18T03:00:01;42.25;;;19.30;;
35126;SDS011;21300;52.006;5.798;2022-12-18T03:02:45;37.33;;;18.90;;
35126;SDS011;21300;52.006;5.798;2022-12-18T03:05:36;41.85;;;19.85;;
35126;SDS011;21300;52.006;5.798;2022-12-18T03:08:16;42.90;;;19.75;;
35126;SDS011;21300;52.006;5.798;2022-12-18T03:10:48;37.85;;;18.85;;
35126;SDS011;21300;52.006;5.798;2022-12-18T03:13:20;39.40;;;18.92;;
35126;SDS011;21300;52.006;5.798;2022-12-18T03:15:52;40.80;;;19.25;;
35126;SDS011;21300;52.006;5.798;2022-12-18T03:18:23;38.10;;;19.02;;
35126;SDS011;21300;52.006;5.798;2022-12-18T03:20:53;39.17;;;18.52;;
35126;SDS011;21300;52.006;5.798;2022-12-18T03:23:22;36.80;;;18.35;;
35126;SDS011;21300;52.006;5.798;2022-12-18T03:25:53;40.72;;;19.52;;
35126;SDS011;21300;52.006;5.798;2022-12-18T03:28:22;34.58;;;18.00;;
35126;SDS011;21300;52.006;5.798;2022-12-18T03:30:49;35.60;;;18.00;;
35126;SDS011;21300;52.006;5.798;2022-12-18T03:33:27;37.53;;;17.67;;
35126;SDS011;21300;52.006;5.798;2022-12-18T03:36:02;33.42;;;16.67;;
35126;SDS011;21300;52.006;5.798;2022-12-18T03:38:28;35.33;;;17.05;;
35126;SDS011;21300;52.006;5.798;2022-12-18T03:41:06;37.30;;;17.85;;
35126;SDS011;21300;52.006;5.798;2022-12-18T03:52:30;31.73;;;16.48;;
35126;SDS011;21300;52.006;5.798;2022-12-18T03:55:01;31.98;;;16.17;;
35126;SDS011;21300;52.006;5.798;2022-12-18T03:57:30;33.08;;;16.65;;
35126;SDS011;21300;52.006;5.798;2022-12-18T04:00:18;30.58;;;16.33;;
35126;SDS011;21300;52.006;5.798;2022-12-18T04:02:45;30.63;;;15.57;;
35126;SDS011;21300;52.006;5.798;2022-12-18T04:05:14;35.15;;;16.67;;
35126;SDS011;21300;52.006;5.798;2022-12-18T04:07:42;31.73;;;16.35;;
35126;SDS011;21300;52.006;5.798;2022-12-18T04:10:11;32.97;;;17.48;;
35126;SDS011;21300;52.006;5.798;2022-12-18T04:12:37;38.20;;;17.63;;
35126;SDS011;21300;52.006;5.798;2022-12-18T04:15:03;32.42;;;16.10;;
35126;SDS011;21300;52.006;5.798;2022-12-18T04:17:30;29.92;;;15.05;;
35126;SDS011;21300;52.006;5.798;2022-12-18T04:19:55;27.40;;;14.70;;
35126;SDS011;21300;52.006;5.798;2022-12-18T04:22:21;33.15;;;17.63;;
35126;SDS011;21300;52.006;5.798;2022-12-18T04:24:46;30.15;;;14.90;;
35126;SDS011;21300;52.006;5.798;2022-12-18T04:27:13;28.45;;;15.70;;
35126;SDS011;21300;52.006;5.798;2022-12-18T04:29:39;29.73;;;15.35;;
35126;SDS011;21300;52.006;5.798;2022-12-18T04:32:05;33.45;;;16.45;;
35126;SDS011;21300;52.006;5.798;2022-12-18T04:34:30;24.98;;;11.50;;
35126;SDS011;21300;52.006;5.798;2022-12-18T04:36:56;28.33;;;15.88;;
35126;SDS011;21300;52.006;5.798;2022-12-18T04:39:21;27.17;;;14.60;;
35126;SDS011;21300;52.006;5.798;2022-12-18T04:41:47;26.90;;;13.73;;
35126;SDS011;21300;52.006;5.798;2022-12-18T04:44:13;28.05;;;15.35;;
35126;SDS011;21300;52.006;5.798;2022-12-18T04:46:38;30.77;;;14.95;;
35126;SDS011;21300;52.006;5.798;2022-12-18T04:49:04;31.83;;;15.35;;
35126;SDS011;21300;52.006;5.798;2022-12-18T04:51:29;32.58;;;14.85;;
35126;SDS011;21300;52.006;5.798;2022-12-18T04:53:55;30.80;;;16.30;;
35126;SDS011;21300;52.006;5.798;2022-12-18T04:56:20;32.75;;;14.88;;
35126;SDS011;21300;52.006;5.798;2022-12-18T04:58:46;27.77;;;14.45;;
35126;SDS011;21300;52.006;5.798;2022-12-18T05:01:12;29.58;;;13.82;;
35126;SDS011;21300;52.006;5.798;2022-12-18T05:03:39;20.83;;;10.50;;
35126;SDS011;21300;52.006;5.798;2022-12-18T05:06:05;27.15;;;14.02;;
35126;SDS011;21300;52.006;5.798;2022-12-18T05:08:32;26.08;;;14.05;;
35126;SDS011;21300;52.006;5.798;2022-12-18T05:11:01;26.67;;;13.48;;
35126;SDS011;21300;52.006;5.798;2022-12-18T05:13:31;20.20;;;10.90;;
35126;SDS011;21300;52.006;5.798;2022-12-18T05:15:58;32.63;;;15.13;;
35126;SDS011;21300;52.006;5.798;2022-12-18T05:18:23;24.33;;;13.50;;
35126;SDS011;21300;52.006;5.798;2022-12-18T05:20:50;26.40;;;13.27;;
35126;SDS011;21300;52.006;5.798;2022-12-18T05:23:17;30.02;;;13.85;;
35126;SDS011;21300;52.006;5.798;2022-12-18T05:25:46;28.63;;;13.52;;
35126;SDS011;21300;52.006;5.798;2022-12-18T05:28:18;28.77;;;14.13;;
35126;SDS011;21300;52.006;5.798;2022-12-18T05:30:51;27.42;;;14.43;;
35126;SDS011;21300;52.006;5.798;2022-12-18T05:33:18;28.65;;;14.38;;
35126;SDS011;21300;52.006;5.798;2022-12-18T05:35:44;24.88;;;13.93;;
35126;SDS011;21300;52.006;5.798;2022-12-18T05:38:14;27.17;;;14.23;;
35126;SDS011;21300;52.006;5.798;2022-12-18T05:40:41;23.95;;;12.75;;
35126;SDS011;21300;52.006;5.798;2022-12-18T05:43:08;25.92;;;13.45;;
35126;SDS011;21300;52.006;5.798;2022-12-18T05:45:36;24.77;;;13.55;;
35126;SDS011;21300;52.006;5.798;2022-12-18T05:48:03;29.58;;;14.80;;
35126;SDS011;21300;52.006;5.798;2022-12-18T05:50:29;24.10;;;12.98;;
35126;SDS011;21300;52.006;5.798;2022-12-18T05:52:54;28.83;;;13.82;;
35126;SDS011;21300;52.006;5.798;2022-12-18T05:55:20;26.95;;;13.75;;
35126;SDS011;21300;52.006;5.798;2022-12-18T05:57:45;28.17;;;15.38;;
35126;SDS011;21300;52.006;5.798;2022-12-18T06:00:11;25.08;;;13.43;;
35126;SDS011;21300;52.006;5.798;2022-12-18T06:02:37;27.27;;;13.15;;
35126;SDS011;21300;52.006;5.798;2022-12-18T06:05:03;27.08;;;13.80;;
35126;SDS011;21300;52.006;5.798;2022-12-18T06:07:29;25.70;;;13.68;;
35126;SDS011;21300;52.006;5.798;2022-12-18T06:09:54;26.48;;;13.82;;
35126;SDS011;21300;52.006;5.798;2022-12-18T06:12:20;24.13;;;13.02;;
35126;SDS011;21300;52.006;5.798;2022-12-18T06:14:46;25.83;;;13.65;;
35126;SDS011;21300;52.006;5.798;2022-12-18T06:17:11;26.58;;;13.07;;
35126;SDS011;21300;52.006;5.798;2022-12-18T06:19:37;28.08;;;13.35;;
35126;SDS011;21300;52.006;5.798;2022-12-18T06:22:02;26.20;;;13.80;;
35126;SDS011;21300;52.006;5.798;2022-12-18T06:24:28;23.20;;;12.63;;
35126;SDS011;21300;52.006;5.798;2022-12-18T06:26:54;26.02;;;12.57;;
35126;SDS011;21300;52.006;5.798;2022-12-18T06:29:20;24.13;;;13.15;;
35126;SDS011;21300;52.006;5.798;2022-12-18T06:31:45;23.65;;;12.35;;
35126;SDS011;21300;52.006;5.798;2022-12-18T06:34:11;28.80;;;14.13;;
35126;SDS011;21300;52.006;5.798;2022-12-18T06:36:36;24.08;;;13.82;;
35126;SDS011;21300;52.006;5.798;2022-12-18T06:39:02;24.90;;;13.18;;
35126;SDS011;21300;52.006;5.798;2022-12-18T06:41:27;23.92;;;12.52;;
35126;SDS011;21300;52.006;5.798;2022-12-18T06:43:53;24.10;;;12.52;;
35126;SDS011;21300;52.006;5.798;2022-12-18T06:46:19;25.33;;;13.45;;
35126;SDS011;21300;52.006;5.798;2022-12-18T06:48:48;23.25;;;12.23;;
35126;SDS011;21300;52.006;5.798;2022-12-18T06:51:16;25.83;;;13.27;;
35126;SDS011;21300;52.006;5.798;2022-12-18T06:53:45;25.45;;;12.07;;
35126;SDS011;21300;52.006;5.798;2022-12-18T06:56:11;26.95;;;13.73;;
35126;SDS011;21300;52.006;5.798;2022-12-18T06:58:37;29.25;;;14.10;;
35126;SDS011;21300;52.006;5.798;2022-12-18T07:01:04;27.90;;;13.95;;
35126;SDS011;21300;52.006;5.798;2022-12-18T07:03:31;26.13;;;13.93;;
35126;SDS011;21300;52.006;5.798;2022-12-18T07:05:57;26.27;;;13.15;;
35126;SDS011;21300;52.006;5.798;2022-12-18T07:08:22;25.98;;;13.85;;
35126;SDS011;21300;52.006;5.798;2022-12-18T07:10:48;26.92;;;14.35;;
35126;SDS011;21300;52.006;5.798;2022-12-18T07:13:16;27.65;;;14.32;;
35126;SDS011;21300;52.006;5.798;2022-12-18T07:15:42;23.95;;;13.68;;
35126;SDS011;21300;52.006;5.798;2022-12-18T07:18:08;24.33;;;12.27;;
35126;SDS011;21300;52.006;5.798;2022-12-18T07:20:34;22.55;;;12.98;;
35126;SDS011;21300;52.006;5.798;2022-12-18T07:23:01;27.63;;;14.13;;
35126;SDS011;21300;52.006;5.798;2022-12-18T07:25:27;29.73;;;14.98;;
35126;SDS011;21300;52.006;5.798;2022-12-18T07:27:53;31.17;;;14.80;;
35126;SDS011;21300;52.006;5.798;2022-12-18T07:30:19;24.23;;;14.35;;
35126;SDS011;21300;52.006;5.798;2022-12-18T07:32:45;26.13;;;13.35;;
35126;SDS011;21300;52.006;5.798;2022-12-18T07:35:10;30.60;;;15.23;;
35126;SDS011;21300;52.006;5.798;2022-12-18T07:37:36;27.33;;;14.25;;
35126;SDS011;21300;52.006;5.798;2022-12-18T07:40:01;27.17;;;14.63;;
35126;SDS011;21300;52.006;5.798;2022-12-18T07:42:27;23.88;;;12.48;;
35126;SDS011;21300;52.006;5.798;2022-12-18T07:44:56;26.45;;;13.13;;
35126;SDS011;21300;52.006;5.798;2022-12-18T07:47:22;26.98;;;13.05;;
35126;SDS011;21300;52.006;5.798;2022-12-18T07:49:48;26.65;;;14.35;;
35126;SDS011;21300;52.006;5.798;2022-12-18T07:52:13;26.42;;;14.02;;
35126;SDS011;21300;52.006;5.798;2022-12-18T07:54:39;27.30;;;13.50;;
35126;SDS011;21300;52.006;5.798;2022-12-18T07:57:05;22.27;;;12.13;;
35126;SDS011;21300;52.006;5.798;2022-12-18T07:59:31;24.55;;;12.90;;
35126;SDS011;21300;52.006;5.798;2022-12-18T08:01:57;23.67;;;13.07;;
35126;SDS011;21300;52.006;5.798;2022-12-18T08:04:23;25.13;;;12.45;;
35126;SDS011;21300;52.006;5.798;2022-12-18T08:06:49;30.63;;;13.68;;
35126;SDS011;21300;52.006;5.798;2022-12-18T08:09:15;22.70;;;11.80;;
35126;SDS011;21300;52.006;5.798;2022-12-18T08:11:40;4.93;;;3.03;;
35126;SDS011;21300;52.006;5.798;2022-12-18T08:14:06;25.33;;;12.15;;
35126;SDS011;21300;52.006;5.798;2022-12-18T08:16:31;25.92;;;14.35;;
35126;SDS011;21300;52.006;5.798;2022-12-18T08:18:57;23.73;;;12.32;;
35126;SDS011;21300;52.006;5.798;2022-12-18T08:21:24;28.52;;;13.07;;
35126;SDS011;21300;52.006;5.798;2022-12-18T08:23:55;23.48;;;11.57;;
35126;SDS011;21300;52.006;5.798;2022-12-18T08:26:22;22.00;;;12.52;;
35126;SDS011;21300;52.006;5.798;2022-12-18T08:28:49;25.20;;;14.75;;
35126;SDS011;21300;52.006;5.798;2022-12-18T08:31:15;22.88;;;11.13;;
35126;SDS011;21300;52.006;5.798;2022-12-18T08:33:41;21.80;;;11.45;;
35126;SDS011;21300;52.006;5.798;2022-12-18T08:36:07;21.60;;;9.27;;
35126;SDS011;21300;52.006;5.798;2022-12-18T08:38:34;26.42;;;12.18;;
35126;SDS011;21300;52.006;5.798;2022-12-18T08:41:19;17.70;;;9.75;;
35126;SDS011;21300;52.006;5.798;2022-12-18T08:43:45;22.52;;;11.00;;
35126;SDS011;21300;52.006;5.798;2022-12-18T08:46:36;22.05;;;11.70;;
35126;SDS011;21300;52.006;5.798;2022-12-18T08:49:04;27.20;;;12.70;;
35126;SDS011;21300;52.006;5.798;2022-12-18T08:51:31;22.30;;;11.43;;
35126;SDS011;21300;52.006;5.798;2022-12-18T08:53:56;21.38;;;11.25;;
35126;SDS011;21300;52.006;5.798;2022-12-18T08:56:22;21.23;;;10.93;;
35126;SDS011;21300;52.006;5.798;2022-12-18T08:58:50;18.48;;;10.38;;
35126;SDS011;21300;52.006;5.798;2022-12-18T09:01:17;25.50;;;12.80;;
35126;SDS011;21300;52.006;5.798;2022-12-18T09:03:42;24.00;;;10.85;;
35126;SDS011;21300;52.006;5.798;2022-12-18T09:06:08;18.10;;;10.05;;
35126;SDS011;21300;52.006;5.798;2022-12-18T09:08:34;23.77;;;10.65;;
35126;SDS011;21300;52.006;5.798;2022-12-18T09:11:00;20.58;;;11.30;;
35126;SDS011;21300;52.006;5.798;2022-12-18T09:13:25;22.95;;;10.35;;
35126;SDS011;21300;52.006;5.798;2022-12-18T09:15:52;22.75;;;11.25;;
35126;SDS011;21300;52.006;5.798;2022-12-18T09:18:19;17.55;;;10.02;;
35126;SDS011;21300;52.006;5.798;2022-12-18T09:20:47;23.02;;;9.75;;
35126;SDS011;21300;52.006;5.798;2022-12-18T09:23:12;6.90;;;4.10;;
35126;SDS011;21300;52.006;5.798;2022-12-18T09:25:39;12.60;;;5.80;;
35126;SDS011;21300;52.006;5.798;2022-12-18T09:28:06;6.93;;;4.45;;
35126;SDS011;21300;52.006;5.798;2022-12-18T09:30:48;19.85;;;10.45;;
35126;SDS011;21300;52.006;5.798;2022-12-18T09:33:15;5.95;;;3.75;;
35126;SDS011;21300;52.006;5.798;2022-12-18T09:35:42;18.10;;;9.40;;
35126;SDS011;21300;52.006;5.798;2022-12-18T09:38:09;17.42;;;8.55;;
35126;SDS011;21300;52.006;5.798;2022-12-18T09:40:54;16.70;;;9.65;;
35126;SDS011;21300;52.006;5.798;2022-12-18T09:43:34;7.75;;;4.13;;
35126;SDS011;21300;52.006;5.798;2022-12-18T09:46:11;22.10;;;10.45;;
35126;SDS011;21300;52.006;5.798;2022-12-18T09:48:47;18.35;;;10.00;;
35126;SDS011;21300;52.006;5.798;2022-12-18T09:51:27;19.65;;;9.65;;
35126;SDS011;21300;52.006;5.798;2022-12-18T09:53:58;19.17;;;10.48;;
35126;SDS011;21300;52.006;5.798;2022-12-18T09:56:28;18.90;;;9.80;;
35126;SDS011;21300;52.006;5.798;2022-12-18T09:59:00;20.05;;;9.05;;
35126;SDS011;21300;52.006;5.798;2022-12-18T10:01:28;18.70;;;9.98;;
35126;SDS011;21300;52.006;5.798;2022-12-18T10:03:54;17.80;;;9.68;;
35126;SDS011;21300;52.006;5.798;2022-12-18T10:06:25;19.88;;;9.98;;
35126;SDS011;21300;52.006;5.798;2022-12-18T10:14:53;21.33;;;9.60;;
35126;SDS011;21300;52.006;5.798;2022-12-18T10:17:33;18.45;;;9.75;;
35126;SDS011;21300;52.006;5.798;2022-12-18T10:20:19;15.73;;;8.45;;
35126;SDS011;21300;52.006;5.798;2022-12-18T10:22:59;20.05;;;10.43;;
35126;SDS011;21300;52.006;5.798;2022-12-18T10:26:05;22.40;;;10.20;;
35126;SDS011;21300;52.006;5.798;2022-12-18T10:28:33;17.58;;;9.90;;
35126;SDS011;21300;52.006;5.798;2022-12-18T10:31:00;20.85;;;9.45;;
35126;SDS011;21300;52.006;5.798;2022-12-18T10:33:28;22.23;;;10.25;;
35126;SDS011;21300;52.006;5.798;2022-12-18T10:35:56;20.42;;;10.43;;
35126;SDS011;21300;52.006;5.798;2022-12-18T10:41:27;21.23;;;10.25;;
35126;SDS011;21300;52.006;5.798;2022-12-18T10:44:10;20.70;;;10.40;;
35126;SDS011;21300;52.006;5.798;2022-12-18T10:46:46;20.83;;;11.10;;
35126;SDS011;21300;52.006;5.798;2022-12-18T10:49:27;19.25;;;10.73;;
35126;SDS011;21300;52.006;5.798;2022-12-18T10:52:07;18.10;;;10.07;;
35126;SDS011;21300;52.006;5.798;2022-12-18T10:54:49;18.25;;;9.13;;
35126;SDS011;21300;52.006;5.798;2022-12-18T10:59:52;20.10;;;10.57;;
35126;SDS011;21300;52.006;5.798;2022-12-18T11:02:37;15.98;;;4.53;;
35126;SDS011;21300;52.006;5.798;2022-12-18T11:05:22;21.85;;;11.80;;
35126;SDS011;21300;52.006;5.798;2022-12-18T11:07:48;20.50;;;9.77;;
35126;SDS011;21300;52.006;5.798;2022-12-18T11:10:25;20.30;;;10.77;;
35126;SDS011;21300;52.006;5.798;2022-12-18T11:12:53;19.45;;;10.43;;
35126;SDS011;21300;52.006;5.798;2022-12-18T11:15:20;23.00;;;11.68;;
35126;SDS011;21300;52.006;5.798;2022-12-18T11:17:50;22.02;;;11.35;;
35126;SDS011;21300;52.006;5.798;2022-12-18T11:20:21;22.15;;;11.07;;
35126;SDS011;21300;52.006;5.798;2022-12-18T11:25:24;18.85;;;10.25;;
35126;SDS011;21300;52.006;5.798;2022-12-18T11:27:55;18.67;;;8.57;;
35126;SDS011;21300;52.006;5.798;2022-12-18T11:30:25;22.73;;;11.32;;
35126;SDS011;21300;52.006;5.798;2022-12-18T11:32:56;24.10;;;12.23;;
35126;SDS011;21300;52.006;5.798;2022-12-18T11:35:44;23.13;;;11.77;;
35126;SDS011;21300;52.006;5.798;2022-12-18T11:38:23;20.48;;;10.43;;
35126;SDS011;21300;52.006;5.798;2022-12-18T11:43:29;19.92;;;11.77;;
35126;SDS011;21300;52.006;5.798;2022-12-18T11:46:10;23.27;;;11.38;;
35126;SDS011;21300;52.006;5.798;2022-12-18T11:51:28;26.17;;;11.55;;
35126;SDS011;21300;52.006;5.798;2022-12-18T11:54:00;23.23;;;11.90;;
35126;SDS011;21300;52.006;5.798;2022-12-18T11:56:31;23.67;;;11.38;;
35126;SDS011;21300;52.006;5.798;2022-12-18T11:59:21;20.50;;;11.57;;
35126;SDS011;21300;52.006;5.798;2022-12-18T12:01:57;24.20;;;11.85;;
35126;SDS011;21300;52.006;5.798;2022-12-18T12:17:55;23.50;;;12.02;;
35126;SDS011;21300;52.006;5.798;2022-12-18T12:23:30;28.50;;;13.63;;
35126;SDS011;21300;52.006;5.798;2022-12-18T12:26:08;24.23;;;11.68;;
35126;SDS011;21300;52.006;5.798;2022-12-18T12:31:21;29.35;;;12.88;;
35126;SDS011;21300;52.006;5.798;2022-12-18T12:39:25;18.20;;;9.43;;
35126;SDS011;21300;52.006;5.798;2022-12-18T12:41:55;15.02;;;6.82;;
35126;SDS011;21300;52.006;5.798;2022-12-18T12:44:42;23.15;;;12.57;;
35126;SDS011;21300;52.006;5.798;2022-12-18T12:47:28;21.30;;;12.20;;
35126;SDS011;21300;52.006;5.798;2022-12-18T12:49:59;25.67;;;12.07;;
35126;SDS011;21300;52.006;5.798;2022-12-18T12:52:34;22.02;;;11.75;;
35126;SDS011;21300;52.006;5.798;2022-12-18T12:55:05;23.90;;;11.50;;
35126;SDS011;21300;52.006;5.798;2022-12-18T12:57:45;23.30;;;12.13;;
35126;SDS011;21300;52.006;5.798;2022-12-18T13:00:20;20.85;;;11.48;;
35126;SDS011;21300;52.006;5.798;2022-12-18T13:02:51;24.40;;;12.25;;
35126;SDS011;21300;52.006;5.798;2022-12-18T13:08:12;25.63;;;13.23;;
35126;SDS011;21300;52.006;5.798;2022-12-18T13:10:51;22.67;;;11.82;;
35126;SDS011;21300;52.006;5.798;2022-12-18T13:13:48;23.55;;;10.45;;
35126;SDS011;21300;52.006;5.798;2022-12-18T13:16:14;28.45;;;12.82;;
35126;SDS011;21300;52.006;5.798;2022-12-18T13:18:48;18.02;;;8.00;;
35126;SDS011;21300;52.006;5.798;2022-12-18T13:21:27;26.20;;;12.10;;
35126;SDS011;21300;52.006;5.798;2022-12-18T13:23:55;27.83;;;11.80;;
35126;SDS011;21300;52.006;5.798;2022-12-18T13:36:48;20.45;;;8.88;;
35126;SDS011;21300;52.006;5.798;2022-12-18T13:41:43;23.25;;;11.68;;
35126;SDS011;21300;52.006;5.798;2022-12-18T13:46:55;24.40;;;11.35;;
35126;SDS011;21300;52.006;5.798;2022-12-18T13:52:02;26.95;;;13.88;;
35126;SDS011;21300;52.006;5.798;2022-12-18T13:54:40;25.52;;;11.98;;
35126;SDS011;21300;52.006;5.798;2022-12-18T13:59:57;26.88;;;13.10;;
35126;SDS011;21300;52.006;5.798;2022-12-18T14:02:24;21.40;;;11.32;;
35126;SDS011;21300;52.006;5.798;2022-12-18T14:04:51;25.95;;;13.48;;
35126;SDS011;21300;52.006;5.798;2022-12-18T14:07:21;22.48;;;10.77;;
35126;SDS011;21300;52.006;5.798;2022-12-18T14:09:49;25.20;;;12.52;;
35126;SDS011;21300;52.006;5.798;2022-12-18T14:12:25;25.00;;;13.25;;
35126;SDS011;21300;52.006;5.798;2022-12-18T14:15:31;26.60;;;13.10;;
35126;SDS011;21300;52.006;5.798;2022-12-18T14:17:59;26.13;;;12.82;;
35126;SDS011;21300;52.006;5.798;2022-12-18T14:20:40;25.35;;;13.02;;
35126;SDS011;21300;52.006;5.798;2022-12-18T14:25:56;20.92;;;10.60;;
35126;SDS011;21300;52.006;5.798;2022-12-18T14:28:21;24.05;;;12.07;;
35126;SDS011;21300;52.006;5.798;2022-12-18T14:30:47;25.90;;;12.13;;
35126;SDS011;21300;52.006;5.798;2022-12-18T14:33:13;26.42;;;12.10;;
35126;SDS011;21300;52.006;5.798;2022-12-18T14:35:43;28.17;;;14.02;;
35126;SDS011;21300;52.006;5.798;2022-12-18T14:38:26;26.77;;;12.90;;
35126;SDS011;21300;52.006;5.798;2022-12-18T14:49:04;25.27;;;13.55;;
35126;SDS011;21300;52.006;5.798;2022-12-18T14:51:51;24.25;;;11.98;;
35126;SDS011;21300;52.006;5.798;2022-12-18T14:54:19;25.23;;;13.60;;
35126;SDS011;21300;52.006;5.798;2022-12-18T14:56:46;30.23;;;14.20;;
35126;SDS011;21300;52.006;5.798;2022-12-18T14:59:21;20.73;;;10.25;;
35126;SDS011;21300;52.006;5.798;2022-12-18T15:01:55;27.58;;;14.25;;
35126;SDS011;21300;52.006;5.798;2022-12-18T15:04:35;24.65;;;13.20;;
35126;SDS011;21300;52.006;5.798;2022-12-18T15:07:16;15.90;;;9.15;;
35126;SDS011;21300;52.006;5.798;2022-12-18T15:09:46;16.80;;;8.93;;
35126;SDS011;21300;52.006;5.798;2022-12-18T15:20:42;25.17;;;13.75;;
35126;SDS011;21300;52.006;5.798;2022-12-18T15:23:20;26.58;;;13.98;;
35126;SDS011;21300;52.006;5.798;2022-12-18T15:28:34;29.80;;;14.52;;
35126;SDS011;21300;52.006;5.798;2022-12-18T15:31:05;23.88;;;10.30;;
35126;SDS011;21300;52.006;5.798;2022-12-18T15:33:35;26.45;;;13.82;;
35126;SDS011;21300;52.006;5.798;2022-12-18T15:36:03;33.00;;;15.52;;
35126;SDS011;21300;52.006;5.798;2022-12-18T15:38:31;24.55;;;13.45;;
35126;SDS011;21300;52.006;5.798;2022-12-18T15:40:57;27.55;;;14.55;;
35126;SDS011;21300;52.006;5.798;2022-12-18T15:43:23;13.77;;;6.97;;
35126;SDS011;21300;52.006;5.798;2022-12-18T15:45:58;28.83;;;16.20;;
35126;SDS011;21300;52.006;5.798;2022-12-18T15:48:25;31.02;;;14.13;;
35126;SDS011;21300;52.006;5.798;2022-12-18T15:50:50;27.48;;;14.55;;
35126;SDS011;21300;52.006;5.798;2022-12-18T15:53:18;26.50;;;13.55;;
35126;SDS011;21300;52.006;5.798;2022-12-18T15:55:44;21.60;;;9.13;;
35126;SDS011;21300;52.006;5.798;2022-12-18T15:58:28;26.13;;;13.50;;
35126;SDS011;21300;52.006;5.798;2022-12-18T16:00:54;28.55;;;14.90;;
35126;SDS011;21300;52.006;5.798;2022-12-18T16:03:22;29.83;;;14.93;;
35126;SDS011;21300;52.006;5.798;2022-12-18T16:05:47;28.27;;;14.15;;
35126;SDS011;21300;52.006;5.798;2022-12-18T16:08:13;13.60;;;6.90;;
35126;SDS011;21300;52.006;5.798;2022-12-18T16:10:38;30.00;;;14.18;;
35126;SDS011;21300;52.006;5.798;2022-12-18T16:13:04;31.10;;;15.55;;
35126;SDS011;21300;52.006;5.798;2022-12-18T16:15:30;31.33;;;16.02;;
35126;SDS011;21300;52.006;5.798;2022-12-18T16:17:56;31.20;;;15.23;;
35126;SDS011;21300;52.006;5.798;2022-12-18T16:20:22;30.60;;;15.82;;
35126;SDS011;21300;52.006;5.798;2022-12-18T16:22:48;28.92;;;15.38;;
35126;SDS011;21300;52.006;5.798;2022-12-18T16:25:21;28.02;;;14.43;;
35126;SDS011;21300;52.006;5.798;2022-12-18T16:27:48;30.48;;;13.95;;
35126;SDS011;21300;52.006;5.798;2022-12-18T16:30:18;24.13;;;12.65;;
35126;SDS011;21300;52.006;5.798;2022-12-18T16:32:46;30.42;;;13.90;;
35126;SDS011;21300;52.006;5.798;2022-12-18T16:35:12;35.30;;;17.25;;
35126;SDS011;21300;52.006;5.798;2022-12-18T16:37:39;28.17;;;14.18;;
35126;SDS011;21300;52.006;5.798;2022-12-18T16:40:06;32.92;;;15.82;;